Carterton, Virginia
Current Conditions -  °F | °C
As of 2:15 PM on Friday 28 Nov 2014 (Local Time) from KVJI Reporting Station
Scattered Clouds Scattered Clouds  
Wind Chill: 29°   Ceiling: Unl
Heat Index: 34°   Visibility: 10mi
Dew Point: 22°   Wind: 5mph
Humidity: 62%   Direction: 270°W
Pressure: 30.27"   Gusts: NA
Location:  36.85°N, 82.1249°W
Report Text: KVJI 281915Z AUTO 27004KT 10SM SCT027 01/M06 A3027 RMK AO2 T00091056
Loading
Personal Weather Stations






























Interactive Weather Map New forecast layout! Learn more

10-Day Weather Forecast

Advertisements
Track Severe Weather on mobile